sensor_id;sensor_type;location;lat;lon;timestamp;P1;durP1;ratioP1;P2;durP2;ratioP2
78498;SDS011;67786;50.050;8.682;2023-02-14T00:01:48;32.75;;;23.67;;
78498;SDS011;67786;50.050;8.682;2023-02-14T00:04:17;34.20;;;24.35;;
78498;SDS011;67786;50.050;8.682;2023-02-14T00:06:44;32.42;;;24.27;;
78498;SDS011;67786;50.050;8.682;2023-02-14T00:09:11;32.75;;;24.35;;
78498;SDS011;67786;50.050;8.682;2023-02-14T00:11:40;33.20;;;24.10;;
78498;SDS011;67786;50.050;8.682;2023-02-14T00:14:06;35.83;;;24.23;;
78498;SDS011;67786;50.050;8.682;2023-02-14T00:19:19;35.10;;;24.50;;
78498;SDS011;67786;50.050;8.682;2023-02-14T00:21:46;35.10;;;24.65;;
78498;SDS011;67786;50.050;8.682;2023-02-14T00:24:14;34.50;;;23.95;;
78498;SDS011;67786;50.050;8.682;2023-02-14T00:26:42;32.88;;;23.83;;
78498;SDS011;67786;50.050;8.682;2023-02-14T00:29:10;32.22;;;23.80;;
78498;SDS011;67786;50.050;8.682;2023-02-14T00:31:37;32.33;;;24.23;;
78498;SDS011;67786;50.050;8.682;2023-02-14T00:34:04;34.72;;;24.83;;
78498;SDS011;67786;50.050;8.682;2023-02-14T00:36:32;34.22;;;24.13;;
78498;SDS011;67786;50.050;8.682;2023-02-14T00:38:58;35.15;;;24.88;;
78498;SDS011;67786;50.050;8.682;2023-02-14T00:41:26;34.10;;;24.50;;
78498;SDS011;67786;50.050;8.682;2023-02-14T00:43:53;34.97;;;25.27;;
78498;SDS011;67786;50.050;8.682;2023-02-14T00:46:20;32.70;;;24.52;;
78498;SDS011;67786;50.050;8.682;2023-02-14T00:48:47;34.78;;;24.58;;
78498;SDS011;67786;50.050;8.682;2023-02-14T00:51:14;34.50;;;24.52;;
78498;SDS011;67786;50.050;8.682;2023-02-14T00:53:43;33.60;;;24.95;;
78498;SDS011;67786;50.050;8.682;2023-02-14T00:56:10;35.67;;;25.05;;
78498;SDS011;67786;50.050;8.682;2023-02-14T00:58:37;34.63;;;23.90;;
78498;SDS011;67786;50.050;8.682;2023-02-14T01:01:03;34.35;;;24.55;;
78498;SDS011;67786;50.050;8.682;2023-02-14T01:03:30;35.35;;;25.27;;
78498;SDS011;67786;50.050;8.682;2023-02-14T01:05:56;33.05;;;23.52;;
78498;SDS011;67786;50.050;8.682;2023-02-14T01:08:23;35.55;;;24.15;;
78498;SDS011;67786;50.050;8.682;2023-02-14T01:10:51;33.65;;;24.10;;
78498;SDS011;67786;50.050;8.682;2023-02-14T01:13:18;35.97;;;24.92;;
78498;SDS011;67786;50.050;8.682;2023-02-14T01:15:45;35.03;;;24.13;;
78498;SDS011;67786;50.050;8.682;2023-02-14T01:18:13;34.85;;;24.45;;
78498;SDS011;67786;50.050;8.682;2023-02-14T01:20:39;35.83;;;24.02;;
78498;SDS011;67786;50.050;8.682;2023-02-14T01:23:06;35.20;;;25.05;;
78498;SDS011;67786;50.050;8.682;2023-02-14T01:25:32;33.95;;;24.35;;
78498;SDS011;67786;50.050;8.682;2023-02-14T01:28:00;34.72;;;24.55;;
78498;SDS011;67786;50.050;8.682;2023-02-14T01:30:26;34.00;;;24.42;;
78498;SDS011;67786;50.050;8.682;2023-02-14T01:32:53;32.83;;;24.25;;
78498;SDS011;67786;50.050;8.682;2023-02-14T01:35:19;33.20;;;25.23;;
78498;SDS011;67786;50.050;8.682;2023-02-14T01:37:45;34.28;;;24.35;;
78498;SDS011;67786;50.050;8.682;2023-02-14T01:40:12;34.15;;;23.67;;
78498;SDS011;67786;50.050;8.682;2023-02-14T01:42:39;35.22;;;24.35;;
78498;SDS011;67786;50.050;8.682;2023-02-14T01:45:08;36.30;;;25.95;;
78498;SDS011;67786;50.050;8.682;2023-02-14T01:47:42;37.50;;;25.27;;
78498;SDS011;67786;50.050;8.682;2023-02-14T01:50:11;39.35;;;27.15;;
78498;SDS011;67786;50.050;8.682;2023-02-14T01:52:40;35.90;;;25.92;;
78498;SDS011;67786;50.050;8.682;2023-02-14T01:55:10;38.22;;;26.98;;
78498;SDS011;67786;50.050;8.682;2023-02-14T01:57:39;37.05;;;26.40;;
78498;SDS011;67786;50.050;8.682;2023-02-14T02:00:11;37.58;;;26.50;;
78498;SDS011;67786;50.050;8.682;2023-02-14T02:02:56;36.05;;;25.83;;
78498;SDS011;67786;50.050;8.682;2023-02-14T02:05:24;36.58;;;25.70;;
78498;SDS011;67786;50.050;8.682;2023-02-14T02:07:50;38.88;;;27.17;;
78498;SDS011;67786;50.050;8.682;2023-02-14T02:10:18;37.60;;;25.35;;
78498;SDS011;67786;50.050;8.682;2023-02-14T02:12:44;35.92;;;26.42;;
78498;SDS011;67786;50.050;8.682;2023-02-14T02:15:13;35.90;;;25.50;;
78498;SDS011;67786;50.050;8.682;2023-02-14T02:17:42;35.60;;;24.73;;
78498;SDS011;67786;50.050;8.682;2023-02-14T02:20:25;35.63;;;24.42;;
78498;SDS011;67786;50.050;8.682;2023-02-14T02:23:26;37.22;;;26.88;;
78498;SDS011;67786;50.050;8.682;2023-02-14T02:26:26;35.42;;;24.58;;
78498;SDS011;67786;50.050;8.682;2023-02-14T02:29:18;37.08;;;26.02;;
78498;SDS011;67786;50.050;8.682;2023-02-14T02:32:17;36.30;;;25.08;;
78498;SDS011;67786;50.050;8.682;2023-02-14T02:35:16;37.40;;;25.38;;
78498;SDS011;67786;50.050;8.682;2023-02-14T02:37:50;35.88;;;24.55;;
78498;SDS011;67786;50.050;8.682;2023-02-14T02:40:30;33.67;;;24.00;;
78498;SDS011;67786;50.050;8.682;2023-02-14T02:43:05;31.90;;;24.48;;
78498;SDS011;67786;50.050;8.682;2023-02-14T02:45:39;35.42;;;25.00;;
78498;SDS011;67786;50.050;8.682;2023-02-14T02:48:22;34.17;;;24.05;;
78498;SDS011;67786;50.050;8.682;2023-02-14T02:50:58;33.78;;;23.85;;
78498;SDS011;67786;50.050;8.682;2023-02-14T02:53:44;33.08;;;24.38;;
78498;SDS011;67786;50.050;8.682;2023-02-14T02:56:16;31.65;;;22.83;;
78498;SDS011;67786;50.050;8.682;2023-02-14T02:59:03;34.08;;;23.52;;
78498;SDS011;67786;50.050;8.682;2023-02-14T03:01:42;34.40;;;23.88;;
78498;SDS011;67786;50.050;8.682;2023-02-14T03:04:09;32.83;;;22.73;;
78498;SDS011;67786;50.050;8.682;2023-02-14T03:06:56;32.65;;;24.45;;
78498;SDS011;67786;50.050;8.682;2023-02-14T03:12:18;32.90;;;23.02;;
78498;SDS011;67786;50.050;8.682;2023-02-14T03:14:55;33.30;;;23.83;;
78498;SDS011;67786;50.050;8.682;2023-02-14T03:17:32;32.10;;;22.88;;
78498;SDS011;67786;50.050;8.682;2023-02-14T03:20:03;34.08;;;24.70;;
78498;SDS011;67786;50.050;8.682;2023-02-14T03:25:10;30.85;;;22.13;;
78498;SDS011;67786;50.050;8.682;2023-02-14T03:27:46;30.38;;;21.58;;
78498;SDS011;67786;50.050;8.682;2023-02-14T03:30:18;30.15;;;22.48;;
78498;SDS011;67786;50.050;8.682;2023-02-14T03:32:46;30.10;;;21.50;;
78498;SDS011;67786;50.050;8.682;2023-02-14T03:35:16;30.17;;;21.48;;
78498;SDS011;67786;50.050;8.682;2023-02-14T03:37:47;31.90;;;22.70;;
78498;SDS011;67786;50.050;8.682;2023-02-14T03:40:16;30.60;;;21.35;;
78498;SDS011;67786;50.050;8.682;2023-02-14T03:42:46;32.17;;;22.73;;
78498;SDS011;67786;50.050;8.682;2023-02-14T03:45:16;31.20;;;22.77;;
78498;SDS011;67786;50.050;8.682;2023-02-14T03:47:44;30.02;;;21.77;;
78498;SDS011;67786;50.050;8.682;2023-02-14T03:50:12;30.73;;;21.77;;
78498;SDS011;67786;50.050;8.682;2023-02-14T03:52:40;30.73;;;21.73;;
78498;SDS011;67786;50.050;8.682;2023-02-14T03:55:09;28.67;;;20.77;;
78498;SDS011;67786;50.050;8.682;2023-02-14T03:57:37;28.45;;;21.02;;
78498;SDS011;67786;50.050;8.682;2023-02-14T04:00:08;29.08;;;20.65;;
78498;SDS011;67786;50.050;8.682;2023-02-14T04:02:36;31.27;;;21.60;;
78498;SDS011;67786;50.050;8.682;2023-02-14T04:05:07;27.13;;;20.25;;
78498;SDS011;67786;50.050;8.682;2023-02-14T04:07:42;29.55;;;20.85;;
78498;SDS011;67786;50.050;8.682;2023-02-14T04:10:11;30.20;;;20.77;;
78498;SDS011;67786;50.050;8.682;2023-02-14T04:12:37;26.50;;;19.67;;
78498;SDS011;67786;50.050;8.682;2023-02-14T04:15:04;26.83;;;19.60;;
78498;SDS011;67786;50.050;8.682;2023-02-14T04:17:31;29.13;;;20.80;;
78498;SDS011;67786;50.050;8.682;2023-02-14T04:20:15;28.52;;;20.48;;
78498;SDS011;67786;50.050;8.682;2023-02-14T04:22:41;27.92;;;19.45;;
78498;SDS011;67786;50.050;8.682;2023-02-14T04:25:08;27.75;;;20.63;;
78498;SDS011;67786;50.050;8.682;2023-02-14T04:27:35;26.58;;;19.08;;
78498;SDS011;67786;50.050;8.682;2023-02-14T04:30:02;25.77;;;18.95;;
78498;SDS011;67786;50.050;8.682;2023-02-14T04:32:28;26.67;;;18.58;;
78498;SDS011;67786;50.050;8.682;2023-02-14T04:34:55;28.08;;;19.33;;
78498;SDS011;67786;50.050;8.682;2023-02-14T04:37:21;28.63;;;19.38;;
78498;SDS011;67786;50.050;8.682;2023-02-14T04:39:47;24.58;;;18.48;;
78498;SDS011;67786;50.050;8.682;2023-02-14T04:42:14;26.05;;;18.63;;
78498;SDS011;67786;50.050;8.682;2023-02-14T04:44:41;27.63;;;19.50;;
78498;SDS011;67786;50.050;8.682;2023-02-14T04:47:08;24.85;;;18.05;;
78498;SDS011;67786;50.050;8.682;2023-02-14T04:49:34;25.77;;;18.92;;
78498;SDS011;67786;50.050;8.682;2023-02-14T04:52:01;22.98;;;16.67;;
78498;SDS011;67786;50.050;8.682;2023-02-14T04:54:27;24.80;;;18.13;;
78498;SDS011;67786;50.050;8.682;2023-02-14T04:56:54;24.83;;;18.63;;
78498;SDS011;67786;50.050;8.682;2023-02-14T04:59:20;23.95;;;16.80;;
78498;SDS011;67786;50.050;8.682;2023-02-14T05:01:48;25.55;;;18.27;;
78498;SDS011;67786;50.050;8.682;2023-02-14T05:04:14;27.45;;;17.95;;
78498;SDS011;67786;50.050;8.682;2023-02-14T05:06:41;25.98;;;17.00;;
78498;SDS011;67786;50.050;8.682;2023-02-14T05:09:07;22.85;;;15.63;;
78498;SDS011;67786;50.050;8.682;2023-02-14T05:11:33;24.20;;;16.60;;
78498;SDS011;67786;50.050;8.682;2023-02-14T05:14:00;23.63;;;17.00;;
78498;SDS011;67786;50.050;8.682;2023-02-14T05:16:26;24.40;;;17.33;;
78498;SDS011;67786;50.050;8.682;2023-02-14T05:18:54;23.65;;;16.88;;
78498;SDS011;67786;50.050;8.682;2023-02-14T05:21:20;23.73;;;15.50;;
78498;SDS011;67786;50.050;8.682;2023-02-14T05:23:46;21.73;;;16.27;;
78498;SDS011;67786;50.050;8.682;2023-02-14T05:26:13;24.02;;;15.90;;
78498;SDS011;67786;50.050;8.682;2023-02-14T05:28:39;23.52;;;16.13;;
78498;SDS011;67786;50.050;8.682;2023-02-14T05:31:06;22.65;;;15.32;;
78498;SDS011;67786;50.050;8.682;2023-02-14T05:33:33;21.75;;;15.05;;
78498;SDS011;67786;50.050;8.682;2023-02-14T05:36:01;21.80;;;15.85;;
78498;SDS011;67786;50.050;8.682;2023-02-14T05:38:27;21.10;;;14.95;;
78498;SDS011;67786;50.050;8.682;2023-02-14T05:40:53;20.90;;;14.93;;
78498;SDS011;67786;50.050;8.682;2023-02-14T05:43:20;21.08;;;16.05;;
78498;SDS011;67786;50.050;8.682;2023-02-14T05:45:46;20.70;;;15.02;;
78498;SDS011;67786;50.050;8.682;2023-02-14T05:48:12;23.23;;;15.10;;
78498;SDS011;67786;50.050;8.682;2023-02-14T05:50:39;21.65;;;15.30;;
78498;SDS011;67786;50.050;8.682;2023-02-14T05:53:07;18.70;;;14.23;;
78498;SDS011;67786;50.050;8.682;2023-02-14T05:55:34;19.50;;;14.07;;
78498;SDS011;67786;50.050;8.682;2023-02-14T05:58:00;19.02;;;14.18;;
78498;SDS011;67786;50.050;8.682;2023-02-14T06:00:27;20.20;;;13.65;;
78498;SDS011;67786;50.050;8.682;2023-02-14T06:02:53;20.13;;;14.50;;
78498;SDS011;67786;50.050;8.682;2023-02-14T06:05:19;18.40;;;13.63;;
78498;SDS011;67786;50.050;8.682;2023-02-14T06:07:47;19.70;;;14.10;;
78498;SDS011;67786;50.050;8.682;2023-02-14T06:10:16;19.65;;;14.02;;
78498;SDS011;67786;50.050;8.682;2023-02-14T06:12:42;18.83;;;13.10;;
78498;SDS011;67786;50.050;8.682;2023-02-14T06:15:09;19.50;;;14.15;;
78498;SDS011;67786;50.050;8.682;2023-02-14T06:17:35;19.55;;;13.52;;
78498;SDS011;67786;50.050;8.682;2023-02-14T06:20:01;19.15;;;13.68;;
78498;SDS011;67786;50.050;8.682;2023-02-14T06:22:28;19.35;;;13.52;;
78498;SDS011;67786;50.050;8.682;2023-02-14T06:24:54;18.70;;;13.00;;
78498;SDS011;67786;50.050;8.682;2023-02-14T06:27:22;18.33;;;13.30;;
78498;SDS011;67786;50.050;8.682;2023-02-14T06:29:48;18.58;;;13.13;;
78498;SDS011;67786;50.050;8.682;2023-02-14T06:32:14;19.00;;;13.70;;
78498;SDS011;67786;50.050;8.682;2023-02-14T06:34:41;18.67;;;13.15;;
78498;SDS011;67786;50.050;8.682;2023-02-14T06:37:07;17.13;;;13.18;;
78498;SDS011;67786;50.050;8.682;2023-02-14T06:39:33;18.65;;;13.50;;
78498;SDS011;67786;50.050;8.682;2023-02-14T06:41:59;18.75;;;13.15;;
78498;SDS011;67786;50.050;8.682;2023-02-14T06:44:27;19.40;;;13.85;;
78498;SDS011;67786;50.050;8.682;2023-02-14T06:46:53;17.73;;;12.95;;
78498;SDS011;67786;50.050;8.682;2023-02-14T06:49:20;19.75;;;13.48;;
78498;SDS011;67786;50.050;8.682;2023-02-14T06:51:47;19.30;;;13.88;;
78498;SDS011;67786;50.050;8.682;2023-02-14T06:54:14;18.33;;;12.88;;
78498;SDS011;67786;50.050;8.682;2023-02-14T06:56:40;17.40;;;12.90;;
78498;SDS011;67786;50.050;8.682;2023-02-14T06:59:07;18.70;;;12.73;;
78498;SDS011;67786;50.050;8.682;2023-02-14T07:01:34;17.30;;;12.70;;
78498;SDS011;67786;50.050;8.682;2023-02-14T07:04:01;18.75;;;13.10;;
78498;SDS011;67786;50.050;8.682;2023-02-14T07:06:27;18.50;;;13.35;;
78498;SDS011;67786;50.050;8.682;2023-02-14T07:08:54;17.98;;;12.63;;
78498;SDS011;67786;50.050;8.682;2023-02-14T07:11:20;17.98;;;12.20;;
78498;SDS011;67786;50.050;8.682;2023-02-14T07:13:46;17.48;;;12.77;;
78498;SDS011;67786;50.050;8.682;2023-02-14T07:16:12;15.93;;;11.77;;
78498;SDS011;67786;50.050;8.682;2023-02-14T07:18:40;17.38;;;12.00;;
78498;SDS011;67786;50.050;8.682;2023-02-14T07:21:06;15.93;;;12.23;;
78498;SDS011;67786;50.050;8.682;2023-02-14T07:23:33;17.73;;;12.15;;
78498;SDS011;67786;50.050;8.682;2023-02-14T07:26:00;16.50;;;11.85;;
78498;SDS011;67786;50.050;8.682;2023-02-14T07:28:26;17.20;;;12.13;;
78498;SDS011;67786;50.050;8.682;2023-02-14T07:30:54;16.73;;;12.18;;
78498;SDS011;67786;50.050;8.682;2023-02-14T07:33:20;16.58;;;11.60;;
78498;SDS011;67786;50.050;8.682;2023-02-14T07:35:48;16.02;;;11.85;;
78498;SDS011;67786;50.050;8.682;2023-02-14T07:38:14;14.95;;;10.90;;
78498;SDS011;67786;50.050;8.682;2023-02-14T07:40:40;16.08;;;11.50;;
78498;SDS011;67786;50.050;8.682;2023-02-14T07:43:07;15.77;;;11.13;;
78498;SDS011;67786;50.050;8.682;2023-02-14T07:45:33;14.80;;;11.02;;
78498;SDS011;67786;50.050;8.682;2023-02-14T07:47:59;13.57;;;10.20;;
78498;SDS011;67786;50.050;8.682;2023-02-14T07:50:27;16.13;;;10.80;;
78498;SDS011;67786;50.050;8.682;2023-02-14T07:52:55;15.15;;;11.23;;
78498;SDS011;67786;50.050;8.682;2023-02-14T07:55:21;14.35;;;10.57;;
78498;SDS011;67786;50.050;8.682;2023-02-14T07:57:49;16.13;;;10.65;;
78498;SDS011;67786;50.050;8.682;2023-02-14T08:00:16;13.73;;;9.82;;
78498;SDS011;67786;50.050;8.682;2023-02-14T08:02:43;12.85;;;9.40;;
78498;SDS011;67786;50.050;8.682;2023-02-14T08:05:09;14.80;;;10.05;;
78498;SDS011;67786;50.050;8.682;2023-02-14T08:07:35;14.13;;;9.88;;
78498;SDS011;67786;50.050;8.682;2023-02-14T08:10:04;13.48;;;9.95;;
78498;SDS011;67786;50.050;8.682;2023-02-14T08:12:31;13.30;;;9.50;;
78498;SDS011;67786;50.050;8.682;2023-02-14T08:15:15;11.98;;;9.05;;
78498;SDS011;67786;50.050;8.682;2023-02-14T08:17:59;12.60;;;9.10;;
78498;SDS011;67786;50.050;8.682;2023-02-14T08:20:25;12.73;;;9.02;;
78498;SDS011;67786;50.050;8.682;2023-02-14T08:22:52;12.65;;;9.02;;
78498;SDS011;67786;50.050;8.682;2023-02-14T08:25:20;11.07;;;8.63;;
78498;SDS011;67786;50.050;8.682;2023-02-14T08:27:46;12.10;;;8.82;;
78498;SDS011;67786;50.050;8.682;2023-02-14T08:30:13;11.48;;;8.52;;
78498;SDS011;67786;50.050;8.682;2023-02-14T08:32:40;12.80;;;8.95;;
78498;SDS011;67786;50.050;8.682;2023-02-14T08:35:06;12.93;;;7.90;;
78498;SDS011;67786;50.050;8.682;2023-02-14T08:37:33;12.38;;;8.77;;
78498;SDS011;67786;50.050;8.682;2023-02-14T08:39:59;11.50;;;8.18;;
78498;SDS011;67786;50.050;8.682;2023-02-14T08:42:27;12.73;;;8.82;;
78498;SDS011;67786;50.050;8.682;2023-02-14T08:44:53;10.95;;;8.55;;
78498;SDS011;67786;50.050;8.682;2023-02-14T08:47:20;10.13;;;8.27;;
78498;SDS011;67786;50.050;8.682;2023-02-14T08:49:46;11.27;;;8.18;;
78498;SDS011;67786;50.050;8.682;2023-02-14T08:52:12;10.05;;;7.38;;
78498;SDS011;67786;50.050;8.682;2023-02-14T08:54:39;11.18;;;7.65;;
78498;SDS011;67786;50.050;8.682;2023-02-14T08:57:05;11.15;;;8.18;;
78498;SDS011;67786;50.050;8.682;2023-02-14T08:59:33;10.98;;;8.20;;
78498;SDS011;67786;50.050;8.682;2023-02-14T09:01:59;10.20;;;7.72;;
78498;SDS011;67786;50.050;8.682;2023-02-14T09:04:25;10.82;;;8.45;;
78498;SDS011;67786;50.050;8.682;2023-02-14T09:06:51;13.15;;;7.63;;
78498;SDS011;67786;50.050;8.682;2023-02-14T09:09:18;13.40;;;7.85;;
78498;SDS011;67786;50.050;8.682;2023-02-14T09:11:44;9.70;;;7.03;;
78498;SDS011;67786;50.050;8.682;2023-02-14T09:14:10;12.45;;;7.25;;
78498;SDS011;67786;50.050;8.682;2023-02-14T09:16:38;9.60;;;7.07;;
78498;SDS011;67786;50.050;8.682;2023-02-14T09:19:05;10.50;;;7.45;;
78498;SDS011;67786;50.050;8.682;2023-02-14T09:21:31;10.10;;;7.55;;
78498;SDS011;67786;50.050;8.682;2023-02-14T09:23:58;9.98;;;7.22;;
78498;SDS011;67786;50.050;8.682;2023-02-14T09:26:24;9.23;;;6.80;;
78498;SDS011;67786;50.050;8.682;2023-02-14T09:28:51;10.10;;;7.45;;
78498;SDS011;67786;50.050;8.682;2023-02-14T09:31:18;10.77;;;7.10;;
78498;SDS011;67786;50.050;8.682;2023-02-14T09:33:47;8.88;;;6.70;;
78498;SDS011;67786;50.050;8.682;2023-02-14T09:36:15;9.70;;;6.88;;
78498;SDS011;67786;50.050;8.682;2023-02-14T09:38:59;8.55;;;6.57;;
78498;SDS011;67786;50.050;8.682;2023-02-14T09:41:36;8.35;;;6.70;;
78498;SDS011;67786;50.050;8.682;2023-02-14T09:44:14;8.38;;;6.40;;
78498;SDS011;67786;50.050;8.682;2023-02-14T09:46:44;8.40;;;6.20;;
78498;SDS011;67786;50.050;8.682;2023-02-14T09:49:15;7.30;;;5.97;;
78498;SDS011;67786;50.050;8.682;2023-02-14T09:51:45;8.25;;;6.28;;
78498;SDS011;67786;50.050;8.682;2023-02-14T09:54:13;8.40;;;6.38;;
78498;SDS011;67786;50.050;8.682;2023-02-14T09:56:44;7.90;;;5.75;;
78498;SDS011;67786;50.050;8.682;2023-02-14T09:59:16;7.45;;;6.03;;
78498;SDS011;67786;50.050;8.682;2023-02-14T10:01:48;8.23;;;5.88;;
78498;SDS011;67786;50.050;8.682;2023-02-14T10:04:20;7.82;;;5.75;;
78498;SDS011;67786;50.050;8.682;2023-02-14T10:06:51;8.93;;;6.47;;
78498;SDS011;67786;50.050;8.682;2023-02-14T10:09:23;7.70;;;5.43;;
78498;SDS011;67786;50.050;8.682;2023-02-14T10:12:03;7.60;;;5.85;;
78498;SDS011;67786;50.050;8.682;2023-02-14T10:14:35;7.18;;;5.57;;
78498;SDS011;67786;50.050;8.682;2023-02-14T10:17:05;7.10;;;5.63;;
78498;SDS011;67786;50.050;8.682;2023-02-14T10:19:37;6.75;;;5.43;;
78498;SDS011;67786;50.050;8.682;2023-02-14T10:22:05;7.60;;;5.65;;
78498;SDS011;67786;50.050;8.682;2023-02-14T10:24:34;8.23;;;5.93;;
78498;SDS011;67786;50.050;8.682;2023-02-14T10:27:05;7.28;;;5.38;;
78498;SDS011;67786;50.050;8.682;2023-02-14T10:29:37;6.85;;;4.80;;
78498;SDS011;67786;50.050;8.682;2023-02-14T10:32:03;6.82;;;5.20;;
78498;SDS011;67786;50.050;8.682;2023-02-14T10:34:39;7.53;;;5.78;;
78498;SDS011;67786;50.050;8.682;2023-02-14T10:37:19;8.70;;;5.70;;
78498;SDS011;67786;50.050;8.682;2023-02-14T10:39:54;9.20;;;5.63;;
78498;SDS011;67786;50.050;8.682;2023-02-14T10:42:32;8.63;;;6.13;;
78498;SDS011;67786;50.050;8.682;2023-02-14T10:45:04;8.52;;;5.75;;
78498;SDS011;67786;50.050;8.682;2023-02-14T10:47:41;6.78;;;5.40;;
78498;SDS011;67786;50.050;8.682;2023-02-14T10:50:14;10.52;;;5.15;;
78498;SDS011;67786;50.050;8.682;2023-02-14T10:52:44;7.68;;;5.60;;
78498;SDS011;67786;50.050;8.682;2023-02-14T10:55:17;7.22;;;5.22;;
78498;SDS011;67786;50.050;8.682;2023-02-14T10:57:46;7.25;;;4.95;;
78498;SDS011;67786;50.050;8.682;2023-02-14T11:00:16;6.80;;;4.65;;
78498;SDS011;67786;50.050;8.682;2023-02-14T11:02:46;5.97;;;4.78;;
78498;SDS011;67786;50.050;8.682;2023-02-14T11:05:18;7.35;;;5.05;;
78498;SDS011;67786;50.050;8.682;2023-02-14T11:07:49;7.30;;;5.28;;
78498;SDS011;67786;50.050;8.682;2023-02-14T11:10:16;7.45;;;5.32;;
78498;SDS011;67786;50.050;8.682;2023-02-14T11:12:42;7.05;;;5.18;;
78498;SDS011;67786;50.050;8.682;2023-02-14T11:15:10;7.78;;;5.75;;
78498;SDS011;67786;50.050;8.682;2023-02-14T11:17:45;8.27;;;5.72;;
78498;SDS011;67786;50.050;8.682;2023-02-14T11:20:23;7.35;;;5.53;;
78498;SDS011;67786;50.050;8.682;2023-02-14T11:22:51;8.18;;;5.85;;
78498;SDS011;67786;50.050;8.682;2023-02-14T11:25:19;9.18;;;5.32;;
78498;SDS011;67786;50.050;8.682;2023-02-14T11:27:47;9.38;;;6.25;;
78498;SDS011;67786;50.050;8.682;2023-02-14T11:30:17;7.53;;;5.82;;
78498;SDS011;67786;50.050;8.682;2023-02-14T11:32:48;8.30;;;5.32;;
78498;SDS011;67786;50.050;8.682;2023-02-14T11:35:19;8.52;;;6.07;;
78498;SDS011;67786;50.050;8.682;2023-02-14T11:37:50;8.02;;;5.93;;
78498;SDS011;67786;50.050;8.682;2023-02-14T11:40:25;8.38;;;5.85;;
78498;SDS011;67786;50.050;8.682;2023-02-14T11:42:53;8.43;;;5.95;;
78498;SDS011;67786;50.050;8.682;2023-02-14T11:45:25;9.05;;;6.15;;
78498;SDS011;67786;50.050;8.682;2023-02-14T11:48:05;9.35;;;6.60;;
78498;SDS011;67786;50.050;8.682;2023-02-14T11:50:36;8.85;;;6.07;;
78498;SDS011;67786;50.050;8.682;2023-02-14T11:53:09;9.52;;;6.90;;
78498;SDS011;67786;50.050;8.682;2023-02-14T11:55:39;9.85;;;6.43;;
78498;SDS011;67786;50.050;8.682;2023-02-14T11:58:09;9.32;;;6.60;;
78498;SDS011;67786;50.050;8.682;2023-02-14T12:00:57;10.50;;;7.20;;
78498;SDS011;67786;50.050;8.682;2023-02-14T12:03:26;9.02;;;6.88;;
78498;SDS011;67786;50.050;8.682;2023-02-14T12:05:53;9.80;;;6.85;;
78498;SDS011;67786;50.050;8.682;2023-02-14T12:08:26;10.40;;;7.38;;
78498;SDS011;67786;50.050;8.682;2023-02-14T12:11:00;10.45;;;7.43;;
78498;SDS011;67786;50.050;8.682;2023-02-14T12:13:27;10.60;;;7.32;;
78498;SDS011;67786;50.050;8.682;2023-02-14T12:15:54;10.32;;;6.78;;
78498;SDS011;67786;50.050;8.682;2023-02-14T12:18:36;12.15;;;7.18;;
78498;SDS011;67786;50.050;8.682;2023-02-14T12:21:10;11.18;;;7.72;;
78498;SDS011;67786;50.050;8.682;2023-02-14T12:23:49;10.48;;;7.35;;
78498;SDS011;67786;50.050;8.682;2023-02-14T12:26:23;13.10;;;7.80;;
78498;SDS011;67786;50.050;8.682;2023-02-14T12:28:54;12.32;;;7.85;;
78498;SDS011;67786;50.050;8.682;2023-02-14T12:31:23;11.18;;;6.85;;
78498;SDS011;67786;50.050;8.682;2023-02-14T12:33:50;9.85;;;7.30;;
78498;SDS011;67786;50.050;8.682;2023-02-14T12:36:18;10.40;;;6.80;;
78498;SDS011;67786;50.050;8.682;2023-02-14T12:38:59;10.25;;;6.97;;
78498;SDS011;67786;50.050;8.682;2023-02-14T12:41:30;10.93;;;7.38;;
78498;SDS011;67786;50.050;8.682;2023-02-14T12:44:04;9.50;;;7.03;;
78498;SDS011;67786;50.050;8.682;2023-02-14T12:46:46;11.10;;;7.93;;
78498;SDS011;67786;50.050;8.682;2023-02-14T12:52:16;11.20;;;7.05;;
78498;SDS011;67786;50.050;8.682;2023-02-14T12:54:56;13.35;;;7.28;;
78498;SDS011;67786;50.050;8.682;2023-02-14T12:57:33;10.77;;;6.60;;
78498;SDS011;67786;50.050;8.682;2023-02-14T13:00:09;10.18;;;7.10;;
78498;SDS011;67786;50.050;8.682;2023-02-14T13:02:45;9.20;;;6.65;;
78498;SDS011;67786;50.050;8.682;2023-02-14T13:05:18;10.32;;;7.15;;
78498;SDS011;67786;50.050;8.682;2023-02-14T13:10:51;10.10;;;6.97;;
78498;SDS011;67786;50.050;8.682;2023-02-14T13:13:22;9.95;;;6.80;;
78498;SDS011;67786;50.050;8.682;2023-02-14T13:15:53;8.95;;;6.82;;
78498;SDS011;67786;50.050;8.682;2023-02-14T13:18:27;10.20;;;6.88;;
78498;SDS011;67786;50.050;8.682;2023-02-14T13:21:00;11.75;;;7.35;;
78498;SDS011;67786;50.050;8.682;2023-02-14T13:23:29;10.68;;;7.60;;
78498;SDS011;67786;50.050;8.682;2023-02-14T13:26:02;10.82;;;6.97;;
78498;SDS011;67786;50.050;8.682;2023-02-14T13:28:30;10.60;;;7.15;;
78498;SDS011;67786;50.050;8.682;2023-02-14T13:30:57;9.40;;;6.47;;
78498;SDS011;67786;50.050;8.682;2023-02-14T13:33:26;11.52;;;7.88;;
78498;SDS011;67786;50.050;8.682;2023-02-14T13:35:56;11.25;;;7.68;;
78498;SDS011;67786;50.050;8.682;2023-02-14T13:38:25;9.50;;;6.40;;
78498;SDS011;67786;50.050;8.682;2023-02-14T13:40:52;8.82;;;6.63;;
78498;SDS011;67786;50.050;8.682;2023-02-14T13:46:17;10.15;;;7.07;;
78498;SDS011;67786;50.050;8.682;2023-02-14T13:48:54;10.35;;;7.35;;
78498;SDS011;67786;50.050;8.682;2023-02-14T13:51:22;11.30;;;7.38;;
78498;SDS011;67786;50.050;8.682;2023-02-14T13:54:18;11.82;;;7.80;;
78498;SDS011;67786;50.050;8.682;2023-02-14T13:56:46;11.45;;;8.13;;
78498;SDS011;67786;50.050;8.682;2023-02-14T13:59:23;10.73;;;7.78;;
78498;SDS011;67786;50.050;8.682;2023-02-14T14:01:51;10.73;;;7.30;;
78498;SDS011;67786;50.050;8.682;2023-02-14T14:04:33;10.38;;;7.90;;
78498;SDS011;67786;50.050;8.682;2023-02-14T14:07:15;10.57;;;7.65;;
78498;SDS011;67786;50.050;8.682;2023-02-14T14:10:00;11.65;;;8.00;;
78498;SDS011;67786;50.050;8.682;2023-02-14T14:12:37;13.98;;;8.77;;
78498;SDS011;67786;50.050;8.682;2023-02-14T14:15:17;10.95;;;8.07;;
78498;SDS011;67786;50.050;8.682;2023-02-14T14:17:48;11.48;;;8.18;;
78498;SDS011;67786;50.050;8.682;2023-02-14T14:20:37;11.73;;;8.05;;
78498;SDS011;67786;50.050;8.682;2023-02-14T14:23:22;12.25;;;8.45;;
78498;SDS011;67786;50.050;8.682;2023-02-14T14:25:51;11.88;;;8.10;;
78498;SDS011;67786;50.050;8.682;2023-02-14T14:28:19;12.98;;;8.75;;
78498;SDS011;67786;50.050;8.682;2023-02-14T14:30:47;11.32;;;8.73;;
78498;SDS011;67786;50.050;8.682;2023-02-14T14:33:14;13.38;;;9.30;;
78498;SDS011;67786;50.050;8.682;2023-02-14T14:35:50;12.77;;;8.45;;
78498;SDS011;67786;50.050;8.682;2023-02-14T14:38:17;12.75;;;8.90;;
78498;SDS011;67786;50.050;8.682;2023-02-14T14:40:44;13.35;;;9.07;;
78498;SDS011;67786;50.050;8.682;2023-02-14T14:43:11;11.30;;;8.73;;
78498;SDS011;67786;50.050;8.682;2023-02-14T14:45:39;11.07;;;8.15;;
78498;SDS011;67786;50.050;8.682;2023-02-14T14:48:08;11.27;;;8.68;;
78498;SDS011;67786;50.050;8.682;2023-02-14T14:50:36;12.38;;;9.07;;
78498;SDS011;67786;50.050;8.682;2023-02-14T14:53:04;11.68;;;8.98;;
78498;SDS011;67786;50.050;8.682;2023-02-14T14:55:34;10.30;;;8.13;;
78498;SDS011;67786;50.050;8.682;2023-02-14T14:58:01;11.32;;;8.32;;
78498;SDS011;67786;50.050;8.682;2023-02-14T15:00:31;12.52;;;9.23;;
78498;SDS011;67786;50.050;8.682;2023-02-14T15:03:00;13.07;;;8.95;;
78498;SDS011;67786;50.050;8.682;2023-02-14T15:05:31;13.30;;;9.07;;